sensor_id;sensor_type;location;lat;lon;timestamp;P1;durP1;ratioP1;P2;durP2;ratioP2
7233;SDS011;3658;47.992;10.158;2022-12-13T00:00:26;4.87;;;3.40;;
7233;SDS011;3658;47.992;10.158;2022-12-13T00:02:52;3.57;;;3.27;;
7233;SDS011;3658;47.992;10.158;2022-12-13T00:05:19;3.47;;;3.17;;
7233;SDS011;3658;47.992;10.158;2022-12-13T00:07:46;3.30;;;3.00;;
7233;SDS011;3658;47.992;10.158;2022-12-13T00:10:15;3.63;;;3.17;;
7233;SDS011;3658;47.992;10.158;2022-12-13T00:12:42;3.73;;;3.33;;
7233;SDS011;3658;47.992;10.158;2022-12-13T00:15:09;3.23;;;2.93;;
7233;SDS011;3658;47.992;10.158;2022-12-13T00:17:37;3.20;;;2.80;;
7233;SDS011;3658;47.992;10.158;2022-12-13T00:22:39;3.20;;;2.90;;
7233;SDS011;3658;47.992;10.158;2022-12-13T00:25:06;3.27;;;2.97;;
7233;SDS011;3658;47.992;10.158;2022-12-13T00:27:35;3.10;;;2.80;;
7233;SDS011;3658;47.992;10.158;2022-12-13T00:30:02;2.93;;;2.73;;
7233;SDS011;3658;47.992;10.158;2022-12-13T00:32:29;2.83;;;2.63;;
7233;SDS011;3658;47.992;10.158;2022-12-13T00:34:56;2.80;;;2.60;;
7233;SDS011;3658;47.992;10.158;2022-12-13T00:37:23;3.33;;;3.03;;
7233;SDS011;3658;47.992;10.158;2022-12-13T00:39:50;3.30;;;2.93;;
7233;SDS011;3658;47.992;10.158;2022-12-13T00:42:17;3.03;;;2.70;;
7233;SDS011;3658;47.992;10.158;2022-12-13T00:44:46;2.83;;;2.50;;
7233;SDS011;3658;47.992;10.158;2022-12-13T00:47:13;2.97;;;2.67;;
7233;SDS011;3658;47.992;10.158;2022-12-13T00:49:39;2.97;;;2.67;;
7233;SDS011;3658;47.992;10.158;2022-12-13T00:52:06;2.80;;;2.50;;
7233;SDS011;3658;47.992;10.158;2022-12-13T00:54:33;3.10;;;2.80;;
7233;SDS011;3658;47.992;10.158;2022-12-13T00:57:00;2.83;;;2.63;;
7233;SDS011;3658;47.992;10.158;2022-12-13T00:59:28;2.60;;;2.40;;
7233;SDS011;3658;47.992;10.158;2022-12-13T01:01:58;2.73;;;2.50;;
7233;SDS011;3658;47.992;10.158;2022-12-13T01:04:25;2.93;;;2.67;;
7233;SDS011;3658;47.992;10.158;2022-12-13T01:06:52;2.43;;;2.23;;
7233;SDS011;3658;47.992;10.158;2022-12-13T01:09:21;2.97;;;2.53;;
7233;SDS011;3658;47.992;10.158;2022-12-13T01:11:54;2.43;;;2.23;;
7233;SDS011;3658;47.992;10.158;2022-12-13T01:14:23;2.57;;;2.27;;
7233;SDS011;3658;47.992;10.158;2022-12-13T01:16:50;2.93;;;2.53;;
7233;SDS011;3658;47.992;10.158;2022-12-13T01:19:21;2.37;;;2.17;;
7233;SDS011;3658;47.992;10.158;2022-12-13T01:21:48;2.70;;;2.50;;
7233;SDS011;3658;47.992;10.158;2022-12-13T01:24:15;2.47;;;2.27;;
7233;SDS011;3658;47.992;10.158;2022-12-13T01:26:44;2.50;;;2.30;;
7233;SDS011;3658;47.992;10.158;2022-12-13T01:29:11;2.33;;;2.13;;
7233;SDS011;3658;47.992;10.158;2022-12-13T01:31:38;2.23;;;2.03;;
7233;SDS011;3658;47.992;10.158;2022-12-13T01:34:06;2.23;;;2.03;;
7233;SDS011;3658;47.992;10.158;2022-12-13T01:36:35;2.13;;;1.97;;
7233;SDS011;3658;47.992;10.158;2022-12-13T01:39:03;2.73;;;2.40;;
7233;SDS011;3658;47.992;10.158;2022-12-13T01:41:31;2.47;;;2.27;;
7233;SDS011;3658;47.992;10.158;2022-12-13T01:43:59;2.43;;;2.20;;
7233;SDS011;3658;47.992;10.158;2022-12-13T01:46:27;1.80;;;1.70;;
7233;SDS011;3658;47.992;10.158;2022-12-13T01:48:56;2.20;;;2.00;;
7233;SDS011;3658;47.992;10.158;2022-12-13T01:51:30;2.10;;;1.97;;
7233;SDS011;3658;47.992;10.158;2022-12-13T01:54:03;2.30;;;2.10;;
7233;SDS011;3658;47.992;10.158;2022-12-13T01:56:35;2.10;;;1.90;;
7233;SDS011;3658;47.992;10.158;2022-12-13T01:59:04;1.90;;;1.80;;
7233;SDS011;3658;47.992;10.158;2022-12-13T02:01:33;2.20;;;2.00;;
7233;SDS011;3658;47.992;10.158;2022-12-13T02:04:00;2.37;;;2.17;;
7233;SDS011;3658;47.992;10.158;2022-12-13T02:06:29;1.83;;;1.73;;
7233;SDS011;3658;47.992;10.158;2022-12-13T02:09:00;1.80;;;1.70;;
7233;SDS011;3658;47.992;10.158;2022-12-13T02:11:29;2.20;;;2.00;;
7233;SDS011;3658;47.992;10.158;2022-12-13T02:13:57;2.07;;;1.87;;
7233;SDS011;3658;47.992;10.158;2022-12-13T02:16:32;2.07;;;1.80;;
7233;SDS011;3658;47.992;10.158;2022-12-13T02:19:22;2.03;;;1.90;;
7233;SDS011;3658;47.992;10.158;2022-12-13T02:22:09;1.90;;;1.80;;
7233;SDS011;3658;47.992;10.158;2022-12-13T02:24:55;1.80;;;1.70;;
7233;SDS011;3658;47.992;10.158;2022-12-13T02:27:48;1.90;;;1.70;;
7233;SDS011;3658;47.992;10.158;2022-12-13T02:30:27;1.87;;;1.77;;
7233;SDS011;3658;47.992;10.158;2022-12-13T02:36:01;2.23;;;2.03;;
7233;SDS011;3658;47.992;10.158;2022-12-13T02:38:35;2.03;;;1.93;;
7233;SDS011;3658;47.992;10.158;2022-12-13T02:41:12;1.83;;;1.73;;
7233;SDS011;3658;47.992;10.158;2022-12-13T02:43:44;1.83;;;1.73;;
7233;SDS011;3658;47.992;10.158;2022-12-13T02:46:19;1.70;;;1.60;;
7233;SDS011;3658;47.992;10.158;2022-12-13T02:48:47;1.80;;;1.70;;
7233;SDS011;3658;47.992;10.158;2022-12-13T02:51:18;1.80;;;1.70;;
7233;SDS011;3658;47.992;10.158;2022-12-13T02:53:47;1.70;;;1.60;;
7233;SDS011;3658;47.992;10.158;2022-12-13T02:56:14;1.90;;;1.70;;
7233;SDS011;3658;47.992;10.158;2022-12-13T02:58:41;1.73;;;1.63;;
7233;SDS011;3658;47.992;10.158;2022-12-13T03:01:14;1.60;;;1.50;;
7233;SDS011;3658;47.992;10.158;2022-12-13T03:03:54;1.90;;;1.80;;
7233;SDS011;3658;47.992;10.158;2022-12-13T03:06:33;1.70;;;1.60;;
7233;SDS011;3658;47.992;10.158;2022-12-13T03:09:14;1.90;;;1.80;;
7233;SDS011;3658;47.992;10.158;2022-12-13T03:15:06;1.67;;;1.57;;
7233;SDS011;3658;47.992;10.158;2022-12-13T03:17:43;1.70;;;1.60;;
7233;SDS011;3658;47.992;10.158;2022-12-13T03:20:15;1.90;;;1.80;;
7233;SDS011;3658;47.992;10.158;2022-12-13T03:22:43;1.73;;;1.63;;
7233;SDS011;3658;47.992;10.158;2022-12-13T03:25:10;2.00;;;1.80;;
7233;SDS011;3658;47.992;10.158;2022-12-13T03:27:37;1.93;;;1.80;;
7233;SDS011;3658;47.992;10.158;2022-12-13T03:30:05;1.57;;;1.40;;
7233;SDS011;3658;47.992;10.158;2022-12-13T03:32:33;1.73;;;1.63;;
7233;SDS011;3658;47.992;10.158;2022-12-13T03:35:01;1.40;;;1.30;;
7233;SDS011;3658;47.992;10.158;2022-12-13T03:37:28;1.50;;;1.40;;
7233;SDS011;3658;47.992;10.158;2022-12-13T03:39:55;1.73;;;1.63;;
7233;SDS011;3658;47.992;10.158;2022-12-13T03:42:22;1.47;;;1.37;;
7233;SDS011;3658;47.992;10.158;2022-12-13T03:44:49;1.60;;;1.50;;
7233;SDS011;3658;47.992;10.158;2022-12-13T03:47:16;1.47;;;1.37;;
7233;SDS011;3658;47.992;10.158;2022-12-13T03:49:43;1.70;;;1.60;;
7233;SDS011;3658;47.992;10.158;2022-12-13T03:52:11;1.50;;;1.40;;
7233;SDS011;3658;47.992;10.158;2022-12-13T03:54:38;2.97;;;1.40;;
7233;SDS011;3658;47.992;10.158;2022-12-13T03:57:05;1.60;;;1.50;;
7233;SDS011;3658;47.992;10.158;2022-12-13T03:59:32;1.47;;;1.37;;
7233;SDS011;3658;47.992;10.158;2022-12-13T04:01:59;1.40;;;1.30;;
7233;SDS011;3658;47.992;10.158;2022-12-13T04:04:26;1.40;;;1.30;;
7233;SDS011;3658;47.992;10.158;2022-12-13T04:06:53;1.60;;;1.50;;
7233;SDS011;3658;47.992;10.158;2022-12-13T04:09:22;1.60;;;1.40;;
7233;SDS011;3658;47.992;10.158;2022-12-13T04:11:49;1.47;;;1.33;;
7233;SDS011;3658;47.992;10.158;2022-12-13T04:14:33;1.60;;;1.50;;
7233;SDS011;3658;47.992;10.158;2022-12-13T04:17:00;1.50;;;1.40;;
7233;SDS011;3658;47.992;10.158;2022-12-13T04:19:27;1.60;;;1.50;;
7233;SDS011;3658;47.992;10.158;2022-12-13T04:21:54;1.63;;;1.53;;
7233;SDS011;3658;47.992;10.158;2022-12-13T04:24:23;1.60;;;1.50;;
7233;SDS011;3658;47.992;10.158;2022-12-13T04:26:50;1.40;;;1.30;;
7233;SDS011;3658;47.992;10.158;2022-12-13T04:29:17;1.50;;;1.40;;
7233;SDS011;3658;47.992;10.158;2022-12-13T04:31:44;1.63;;;1.53;;
7233;SDS011;3658;47.992;10.158;2022-12-13T04:34:11;1.60;;;1.50;;
7233;SDS011;3658;47.992;10.158;2022-12-13T04:36:38;1.70;;;1.50;;
7233;SDS011;3658;47.992;10.158;2022-12-13T04:39:05;1.60;;;1.50;;
7233;SDS011;3658;47.992;10.158;2022-12-13T04:41:35;1.60;;;1.50;;
7233;SDS011;3658;47.992;10.158;2022-12-13T04:44:03;1.60;;;1.50;;
7233;SDS011;3658;47.992;10.158;2022-12-13T04:46:32;1.40;;;1.30;;
7233;SDS011;3658;47.992;10.158;2022-12-13T04:48:59;1.63;;;1.53;;
7233;SDS011;3658;47.992;10.158;2022-12-13T04:51:26;1.40;;;1.30;;
7233;SDS011;3658;47.992;10.158;2022-12-13T04:53:53;1.40;;;1.30;;
7233;SDS011;3658;47.992;10.158;2022-12-13T04:56:20;1.40;;;1.30;;
7233;SDS011;3658;47.992;10.158;2022-12-13T04:58:48;1.70;;;1.47;;
7233;SDS011;3658;47.992;10.158;2022-12-13T05:01:15;1.50;;;1.40;;
7233;SDS011;3658;47.992;10.158;2022-12-13T05:03:42;1.40;;;1.30;;
7233;SDS011;3658;47.992;10.158;2022-12-13T05:06:09;1.43;;;1.33;;
7233;SDS011;3658;47.992;10.158;2022-12-13T05:08:38;1.50;;;1.40;;
7233;SDS011;3658;47.992;10.158;2022-12-13T05:11:06;1.50;;;1.40;;
7233;SDS011;3658;47.992;10.158;2022-12-13T05:13:33;1.50;;;1.40;;
7233;SDS011;3658;47.992;10.158;2022-12-13T05:16:03;1.50;;;1.40;;
7233;SDS011;3658;47.992;10.158;2022-12-13T05:18:31;1.30;;;1.20;;
7233;SDS011;3658;47.992;10.158;2022-12-13T05:21:00;1.50;;;1.40;;
7233;SDS011;3658;47.992;10.158;2022-12-13T05:23:27;1.40;;;1.30;;
7233;SDS011;3658;47.992;10.158;2022-12-13T05:25:54;1.30;;;1.20;;
7233;SDS011;3658;47.992;10.158;2022-12-13T05:28:22;1.50;;;1.40;;
7233;SDS011;3658;47.992;10.158;2022-12-13T05:30:51;1.57;;;1.47;;
7233;SDS011;3658;47.992;10.158;2022-12-13T05:33:20;1.50;;;1.40;;
7233;SDS011;3658;47.992;10.158;2022-12-13T05:35:47;1.53;;;1.40;;
7233;SDS011;3658;47.992;10.158;2022-12-13T05:38:14;1.57;;;1.47;;
7233;SDS011;3658;47.992;10.158;2022-12-13T05:40:42;1.47;;;1.37;;
7233;SDS011;3658;47.992;10.158;2022-12-13T05:43:09;1.50;;;1.40;;
7233;SDS011;3658;47.992;10.158;2022-12-13T05:45:36;1.37;;;1.27;;
7233;SDS011;3658;47.992;10.158;2022-12-13T05:48:03;1.30;;;1.20;;
7233;SDS011;3658;47.992;10.158;2022-12-13T05:50:32;1.50;;;1.40;;
7233;SDS011;3658;47.992;10.158;2022-12-13T05:52:59;1.43;;;1.33;;
7233;SDS011;3658;47.992;10.158;2022-12-13T05:55:26;1.47;;;1.37;;
7233;SDS011;3658;47.992;10.158;2022-12-13T05:57:53;1.50;;;1.40;;
7233;SDS011;3658;47.992;10.158;2022-12-13T06:00:20;1.50;;;1.40;;
7233;SDS011;3658;47.992;10.158;2022-12-13T06:02:47;1.60;;;1.50;;
7233;SDS011;3658;47.992;10.158;2022-12-13T06:05:14;1.50;;;1.40;;
7233;SDS011;3658;47.992;10.158;2022-12-13T06:07:42;1.90;;;1.70;;
7233;SDS011;3658;47.992;10.158;2022-12-13T06:10:09;2.27;;;1.90;;
7233;SDS011;3658;47.992;10.158;2022-12-13T06:12:36;2.60;;;2.17;;
7233;SDS011;3658;47.992;10.158;2022-12-13T06:15:05;3.10;;;2.00;;
7233;SDS011;3658;47.992;10.158;2022-12-13T06:17:33;2.37;;;1.77;;
7233;SDS011;3658;47.992;10.158;2022-12-13T06:20:02;5.83;;;2.60;;
7233;SDS011;3658;47.992;10.158;2022-12-13T06:22:30;3.73;;;2.00;;
7233;SDS011;3658;47.992;10.158;2022-12-13T06:24:59;4.87;;;2.63;;
7233;SDS011;3658;47.992;10.158;2022-12-13T06:27:26;2.60;;;2.33;;
7233;SDS011;3658;47.992;10.158;2022-12-13T06:29:53;3.17;;;2.40;;
7233;SDS011;3658;47.992;10.158;2022-12-13T06:32:20;3.00;;;2.40;;
7233;SDS011;3658;47.992;10.158;2022-12-13T06:34:47;3.23;;;2.50;;
7233;SDS011;3658;47.992;10.158;2022-12-13T06:37:14;4.17;;;2.43;;
7233;SDS011;3658;47.992;10.158;2022-12-13T06:39:41;4.27;;;2.63;;
7233;SDS011;3658;47.992;10.158;2022-12-13T06:42:12;3.27;;;2.30;;
7233;SDS011;3658;47.992;10.158;2022-12-13T06:44:41;3.50;;;2.50;;
7233;SDS011;3658;47.992;10.158;2022-12-13T06:47:09;3.60;;;2.33;;
7233;SDS011;3658;47.992;10.158;2022-12-13T06:49:36;4.00;;;2.70;;
7233;SDS011;3658;47.992;10.158;2022-12-13T06:52:03;3.50;;;2.63;;
7233;SDS011;3658;47.992;10.158;2022-12-13T06:54:31;8.57;;;3.10;;
7233;SDS011;3658;47.992;10.158;2022-12-13T06:56:58;5.33;;;3.13;;
7233;SDS011;3658;47.992;10.158;2022-12-13T06:59:27;3.57;;;2.40;;
7233;SDS011;3658;47.992;10.158;2022-12-13T07:01:54;3.70;;;2.93;;
7233;SDS011;3658;47.992;10.158;2022-12-13T07:04:21;8.43;;;3.47;;
7233;SDS011;3658;47.992;10.158;2022-12-13T07:06:48;5.40;;;2.80;;
7233;SDS011;3658;47.992;10.158;2022-12-13T07:09:15;6.63;;;3.00;;
7233;SDS011;3658;47.992;10.158;2022-12-13T07:11:42;6.93;;;2.90;;
7233;SDS011;3658;47.992;10.158;2022-12-13T07:14:09;5.20;;;2.70;;
7233;SDS011;3658;47.992;10.158;2022-12-13T07:16:38;4.57;;;2.47;;
7233;SDS011;3658;47.992;10.158;2022-12-13T07:19:05;3.30;;;2.47;;
7233;SDS011;3658;47.992;10.158;2022-12-13T07:21:32;7.33;;;3.10;;
7233;SDS011;3658;47.992;10.158;2022-12-13T07:24:00;5.37;;;2.67;;
7233;SDS011;3658;47.992;10.158;2022-12-13T07:26:28;3.83;;;2.47;;
7233;SDS011;3658;47.992;10.158;2022-12-13T07:28:55;5.23;;;2.80;;
7233;SDS011;3658;47.992;10.158;2022-12-13T07:31:22;5.27;;;2.83;;
7233;SDS011;3658;47.992;10.158;2022-12-13T07:33:51;4.13;;;2.67;;
7233;SDS011;3658;47.992;10.158;2022-12-13T07:36:19;4.40;;;2.90;;
7233;SDS011;3658;47.992;10.158;2022-12-13T07:38:49;5.17;;;2.97;;
7233;SDS011;3658;47.992;10.158;2022-12-13T07:41:16;3.27;;;2.70;;
7233;SDS011;3658;47.992;10.158;2022-12-13T07:43:45;2.90;;;2.60;;
7233;SDS011;3658;47.992;10.158;2022-12-13T07:46:12;4.53;;;2.57;;
7233;SDS011;3658;47.992;10.158;2022-12-13T07:48:39;3.87;;;2.90;;
7233;SDS011;3658;47.992;10.158;2022-12-13T07:51:08;2.93;;;2.67;;
7233;SDS011;3658;47.992;10.158;2022-12-13T07:53:37;4.13;;;2.70;;
7233;SDS011;3658;47.992;10.158;2022-12-13T07:56:05;5.20;;;2.80;;
7233;SDS011;3658;47.992;10.158;2022-12-13T07:58:34;9.27;;;2.43;;
7233;SDS011;3658;47.992;10.158;2022-12-13T08:01:02;9.17;;;2.70;;
7233;SDS011;3658;47.992;10.158;2022-12-13T08:03:31;7.37;;;3.30;;
7233;SDS011;3658;47.992;10.158;2022-12-13T08:05:59;9.27;;;3.27;;
7233;SDS011;3658;47.992;10.158;2022-12-13T08:08:28;5.27;;;3.17;;
7233;SDS011;3658;47.992;10.158;2022-12-13T08:10:58;6.20;;;2.80;;
7233;SDS011;3658;47.992;10.158;2022-12-13T08:13:26;8.57;;;2.60;;
7233;SDS011;3658;47.992;10.158;2022-12-13T08:15:56;6.57;;;2.77;;
7233;SDS011;3658;47.992;10.158;2022-12-13T08:18:25;2.90;;;2.60;;
7233;SDS011;3658;47.992;10.158;2022-12-13T08:20:53;8.50;;;2.97;;
7233;SDS011;3658;47.992;10.158;2022-12-13T08:23:23;4.80;;;2.90;;
7233;SDS011;3658;47.992;10.158;2022-12-13T08:25:52;4.37;;;2.73;;
7233;SDS011;3658;47.992;10.158;2022-12-13T08:28:19;3.50;;;2.83;;
7233;SDS011;3658;47.992;10.158;2022-12-13T08:30:47;5.30;;;2.70;;
7233;SDS011;3658;47.992;10.158;2022-12-13T08:33:14;3.97;;;2.73;;
7233;SDS011;3658;47.992;10.158;2022-12-13T08:35:42;3.30;;;2.83;;
7233;SDS011;3658;47.992;10.158;2022-12-13T08:38:09;4.23;;;2.40;;
7233;SDS011;3658;47.992;10.158;2022-12-13T08:40:36;4.03;;;2.73;;
7233;SDS011;3658;47.992;10.158;2022-12-13T08:43:05;2.80;;;2.60;;
7233;SDS011;3658;47.992;10.158;2022-12-13T08:45:32;4.87;;;2.80;;
7233;SDS011;3658;47.992;10.158;2022-12-13T08:48:00;5.03;;;2.60;;
7233;SDS011;3658;47.992;10.158;2022-12-13T08:50:28;3.03;;;2.60;;
7233;SDS011;3658;47.992;10.158;2022-12-13T08:52:56;3.50;;;2.63;;
7233;SDS011;3658;47.992;10.158;2022-12-13T08:55:23;2.87;;;2.67;;
7233;SDS011;3658;47.992;10.158;2022-12-13T08:57:50;2.97;;;2.67;;
7233;SDS011;3658;47.992;10.158;2022-12-13T09:00:19;4.73;;;2.80;;
7233;SDS011;3658;47.992;10.158;2022-12-13T09:02:46;3.47;;;2.70;;
7233;SDS011;3658;47.992;10.158;2022-12-13T09:05:13;3.30;;;2.50;;
7233;SDS011;3658;47.992;10.158;2022-12-13T09:07:40;3.17;;;2.60;;
7233;SDS011;3658;47.992;10.158;2022-12-13T09:10:08;2.90;;;2.47;;
7233;SDS011;3658;47.992;10.158;2022-12-13T09:12:39;3.43;;;3.13;;
7233;SDS011;3658;47.992;10.158;2022-12-13T09:15:07;2.90;;;2.60;;
7233;SDS011;3658;47.992;10.158;2022-12-13T09:17:36;2.70;;;2.43;;
7233;SDS011;3658;47.992;10.158;2022-12-13T09:20:04;2.97;;;2.63;;
7233;SDS011;3658;47.992;10.158;2022-12-13T09:22:33;3.20;;;2.60;;
7233;SDS011;3658;47.992;10.158;2022-12-13T09:25:00;2.80;;;2.50;;
7233;SDS011;3658;47.992;10.158;2022-12-13T09:27:27;2.87;;;2.57;;
7233;SDS011;3658;47.992;10.158;2022-12-13T09:29:54;6.60;;;2.77;;
7233;SDS011;3658;47.992;10.158;2022-12-13T09:32:22;8.83;;;3.23;;
7233;SDS011;3658;47.992;10.158;2022-12-13T09:34:50;2.83;;;2.53;;
7233;SDS011;3658;47.992;10.158;2022-12-13T09:37:17;7.37;;;2.97;;
7233;SDS011;3658;47.992;10.158;2022-12-13T09:39:44;6.53;;;2.80;;
7233;SDS011;3658;47.992;10.158;2022-12-13T09:42:14;2.60;;;2.30;;
7233;SDS011;3658;47.992;10.158;2022-12-13T09:44:47;4.03;;;2.80;;
7233;SDS011;3658;47.992;10.158;2022-12-13T09:47:20;4.00;;;2.40;;
7233;SDS011;3658;47.992;10.158;2022-12-13T09:49:54;3.80;;;2.50;;
7233;SDS011;3658;47.992;10.158;2022-12-13T09:52:22;4.17;;;2.43;;
7233;SDS011;3658;47.992;10.158;2022-12-13T09:54:51;3.90;;;2.77;;
7233;SDS011;3658;47.992;10.158;2022-12-13T09:57:21;3.37;;;2.33;;
7233;SDS011;3658;47.992;10.158;2022-12-13T09:59:51;6.43;;;2.77;;
7233;SDS011;3658;47.992;10.158;2022-12-13T10:02:20;19.97;;;2.87;;
7233;SDS011;3658;47.992;10.158;2022-12-13T10:04:49;6.70;;;2.80;;
7233;SDS011;3658;47.992;10.158;2022-12-13T10:07:19;7.23;;;3.27;;
7233;SDS011;3658;47.992;10.158;2022-12-13T10:09:48;8.10;;;2.97;;
7233;SDS011;3658;47.992;10.158;2022-12-13T10:12:25;5.20;;;3.00;;
7233;SDS011;3658;47.992;10.158;2022-12-13T10:14:55;4.03;;;2.73;;
7233;SDS011;3658;47.992;10.158;2022-12-13T10:17:25;7.00;;;2.80;;
7233;SDS011;3658;47.992;10.158;2022-12-13T10:19:59;7.23;;;2.90;;
7233;SDS011;3658;47.992;10.158;2022-12-13T10:22:28;4.50;;;2.73;;
7233;SDS011;3658;47.992;10.158;2022-12-13T10:24:56;8.57;;;2.90;;
7233;SDS011;3658;47.992;10.158;2022-12-13T10:27:26;5.67;;;2.67;;
7233;SDS011;3658;47.992;10.158;2022-12-13T10:29:56;4.77;;;2.60;;
7233;SDS011;3658;47.992;10.158;2022-12-13T10:32:27;5.53;;;2.50;;
7233;SDS011;3658;47.992;10.158;2022-12-13T10:34:57;3.77;;;2.20;;
7233;SDS011;3658;47.992;10.158;2022-12-13T10:37:25;5.00;;;2.40;;
7233;SDS011;3658;47.992;10.158;2022-12-13T10:39:55;3.67;;;2.37;;
7233;SDS011;3658;47.992;10.158;2022-12-13T10:42:23;7.97;;;2.40;;
7233;SDS011;3658;47.992;10.158;2022-12-13T10:45:08;4.63;;;2.60;;
7233;SDS011;3658;47.992;10.158;2022-12-13T10:47:40;2.97;;;2.10;;
7233;SDS011;3658;47.992;10.158;2022-12-13T10:50:19;3.80;;;2.40;;
7233;SDS011;3658;47.992;10.158;2022-12-13T10:52:50;3.07;;;2.23;;
7233;SDS011;3658;47.992;10.158;2022-12-13T10:55:21;2.47;;;2.27;;
7233;SDS011;3658;47.992;10.158;2022-12-13T10:57:54;2.53;;;2.33;;
7233;SDS011;3658;47.992;10.158;2022-12-13T11:00:30;3.10;;;2.50;;
7233;SDS011;3658;47.992;10.158;2022-12-13T11:03:02;2.50;;;2.30;;
7233;SDS011;3658;47.992;10.158;2022-12-13T11:05:30;3.37;;;2.60;;
7233;SDS011;3658;47.992;10.158;2022-12-13T11:08:12;2.63;;;2.30;;
7233;SDS011;3658;47.992;10.158;2022-12-13T11:10:55;3.27;;;2.50;;
7233;SDS011;3658;47.992;10.158;2022-12-13T11:13:23;3.27;;;2.40;;
7233;SDS011;3658;47.992;10.158;2022-12-13T11:15:58;2.50;;;2.30;;
7233;SDS011;3658;47.992;10.158;2022-12-13T11:18:27;3.67;;;2.40;;
7233;SDS011;3658;47.992;10.158;2022-12-13T11:21:00;8.70;;;6.20;;
7233;SDS011;3658;47.992;10.158;2022-12-13T11:23:30;9.93;;;7.80;;
7233;SDS011;3658;47.992;10.158;2022-12-13T11:26:03;11.20;;;7.83;;
7233;SDS011;3658;47.992;10.158;2022-12-13T11:28:38;10.80;;;7.30;;
7233;SDS011;3658;47.992;10.158;2022-12-13T11:31:19;10.20;;;6.33;;
7233;SDS011;3658;47.992;10.158;2022-12-13T11:33:56;7.53;;;6.57;;
7233;SDS011;3658;47.992;10.158;2022-12-13T11:36:31;9.07;;;5.73;;
7233;SDS011;3658;47.992;10.158;2022-12-13T11:39:12;7.67;;;5.43;;
7233;SDS011;3658;47.992;10.158;2022-12-13T11:41:47;5.57;;;4.73;;
7233;SDS011;3658;47.992;10.158;2022-12-13T11:44:22;7.80;;;4.30;;
7233;SDS011;3658;47.992;10.158;2022-12-13T11:46:55;6.07;;;4.47;;
7233;SDS011;3658;47.992;10.158;2022-12-13T11:49:29;5.43;;;4.23;;
7233;SDS011;3658;47.992;10.158;2022-12-13T11:52:04;5.37;;;3.93;;
7233;SDS011;3658;47.992;10.158;2022-12-13T11:54:43;7.73;;;3.83;;
7233;SDS011;3658;47.992;10.158;2022-12-13T11:57:16;5.90;;;4.20;;
7233;SDS011;3658;47.992;10.158;2022-12-13T11:59:55;4.93;;;3.47;;
7233;SDS011;3658;47.992;10.158;2022-12-13T12:02:31;9.50;;;3.73;;
7233;SDS011;3658;47.992;10.158;2022-12-13T12:05:00;5.33;;;3.77;;
7233;SDS011;3658;47.992;10.158;2022-12-13T12:07:33;4.97;;;3.27;;
7233;SDS011;3658;47.992;10.158;2022-12-13T12:10:13;4.50;;;3.33;;
7233;SDS011;3658;47.992;10.158;2022-12-13T12:12:51;5.30;;;3.40;;
7233;SDS011;3658;47.992;10.158;2022-12-13T12:15:22;4.27;;;2.97;;
7233;SDS011;3658;47.992;10.158;2022-12-13T12:17:54;7.20;;;3.40;;
7233;SDS011;3658;47.992;10.158;2022-12-13T12:20:24;3.97;;;2.90;;
7233;SDS011;3658;47.992;10.158;2022-12-13T12:23:01;3.73;;;3.07;;
7233;SDS011;3658;47.992;10.158;2022-12-13T12:25:39;4.07;;;3.40;;
7233;SDS011;3658;47.992;10.158;2022-12-13T12:28:17;3.33;;;2.90;;
7233;SDS011;3658;47.992;10.158;2022-12-13T12:30:54;5.40;;;3.03;;
7233;SDS011;3658;47.992;10.158;2022-12-13T12:33:28;4.90;;;2.90;;
7233;SDS011;3658;47.992;10.158;2022-12-13T12:36:16;3.03;;;2.73;;
7233;SDS011;3658;47.992;10.158;2022-12-13T12:39:00;4.77;;;3.13;;
7233;SDS011;3658;47.992;10.158;2022-12-13T12:41:44;6.40;;;2.47;;
7233;SDS011;3658;47.992;10.158;2022-12-13T12:44:22;5.87;;;2.80;;
7233;SDS011;3658;47.992;10.158;2022-12-13T12:47:02;4.00;;;3.07;;
7233;SDS011;3658;47.992;10.158;2022-12-13T12:52:42;3.00;;;2.70;;
7233;SDS011;3658;47.992;10.158;2022-12-13T12:55:18;4.20;;;3.03;;
7233;SDS011;3658;47.992;10.158;2022-12-13T12:57:56;2.67;;;2.40;;
7233;SDS011;3658;47.992;10.158;2022-12-13T13:00:34;6.37;;;2.93;;
7233;SDS011;3658;47.992;10.158;2022-12-13T13:03:10;4.40;;;2.70;;
7233;SDS011;3658;47.992;10.158;2022-12-13T13:05:43;8.07;;;3.37;;
7233;SDS011;3658;47.992;10.158;2022-12-13T13:08:17;5.70;;;2.90;;
7233;SDS011;3658;47.992;10.158;2022-12-13T13:10:47;3.00;;;2.70;;
7233;SDS011;3658;47.992;10.158;2022-12-13T13:13:36;4.20;;;2.90;;
7233;SDS011;3658;47.992;10.158;2022-12-13T13:18:57;5.90;;;2.80;;
7233;SDS011;3658;47.992;10.158;2022-12-13T13:24:21;5.27;;;2.70;;
7233;SDS011;3658;47.992;10.158;2022-12-13T13:26:51;3.70;;;2.90;;
7233;SDS011;3658;47.992;10.158;2022-12-13T13:29:30;4.47;;;2.50;;
7233;SDS011;3658;47.992;10.158;2022-12-13T13:32:00;6.47;;;2.43;;
7233;SDS011;3658;47.992;10.158;2022-12-13T13:34:30;3.37;;;2.97;;
7233;SDS011;3658;47.992;10.158;2022-12-13T13:36:59;3.20;;;2.50;;
7233;SDS011;3658;47.992;10.158;2022-12-13T13:42:20;4.80;;;2.53;;
7233;SDS011;3658;47.992;10.158;2022-12-13T13:44:59;4.93;;;2.53;;
7233;SDS011;3658;47.992;10.158;2022-12-13T13:47:57;4.10;;;2.73;;
7233;SDS011;3658;47.992;10.158;2022-12-13T13:57:07;4.47;;;2.50;;
7233;SDS011;3658;47.992;10.158;2022-12-13T14:00:17;3.97;;;2.47;;
7233;SDS011;3658;47.992;10.158;2022-12-13T14:21:50;2.73;;;2.20;;
7233;SDS011;3658;47.992;10.158;2022-12-13T14:24:36;4.10;;;2.50;;
7233;SDS011;3658;47.992;10.158;2022-12-13T14:27:18;2.47;;;2.23;;
7233;SDS011;3658;47.992;10.158;2022-12-13T14:29:58;3.67;;;2.27;;
7233;SDS011;3658;47.992;10.158;2022-12-13T14:32:28;3.30;;;2.27;;
7233;SDS011;3658;47.992;10.158;2022-12-13T14:34:57;2.97;;;2.10;;
7233;SDS011;3658;47.992;10.158;2022-12-13T14:37:25;2.40;;;2.20;;
7233;SDS011;3658;47.992;10.158;2022-12-13T14:39:54;4.50;;;2.50;;
7233;SDS011;3658;47.992;10.158;2022-12-13T14:42:23;5.37;;;2.30;;
7233;SDS011;3658;47.992;10.158;2022-12-13T14:44:53;3.40;;;2.30;;
7233;SDS011;3658;47.992;10.158;2022-12-13T14:47:20;2.97;;;2.13;;
7233;SDS011;3658;47.992;10.158;2022-12-13T14:49:50;5.13;;;2.30;;
7233;SDS011;3658;47.992;10.158;2022-12-13T14:52:20;3.97;;;2.43;;
7233;SDS011;3658;47.992;10.158;2022-12-13T14:54:50;2.30;;;2.07;;
7233;SDS011;3658;47.992;10.158;2022-12-13T14:57:20;2.73;;;2.37;;
7233;SDS011;3658;47.992;10.158;2022-12-13T14:59:49;2.83;;;2.50;;
7233;SDS011;3658;47.992;10.158;2022-12-13T15:02:19;2.30;;;2.10;;
7233;SDS011;3658;47.992;10.158;2022-12-13T15:04:53;2.40;;;2.20;;
7233;SDS011;3658;47.992;10.158;2022-12-13T15:07:22;3.17;;;2.33;;
7233;SDS011;3658;47.992;10.158;2022-12-13T15:09:53;2.93;;;2.27;;
7233;SDS011;3658;47.992;10.158;2022-12-13T15:12:22;2.47;;;2.20;;
7233;SDS011;3658;47.992;10.158;2022-12-13T15:14:51;3.50;;;2.20;;
7233;SDS011;3658;47.992;10.158;2022-12-13T15:17:26;3.30;;;2.53;;
7233;SDS011;3658;47.992;10.158;2022-12-13T15:19:58;2.67;;;2.23;;
7233;SDS011;3658;47.992;10.158;2022-12-13T15:22:25;3.23;;;2.40;;
7233;SDS011;3658;47.992;10.158;2022-12-13T15:24:53;3.97;;;2.67;;
7233;SDS011;3658;47.992;10.158;2022-12-13T15:27:21;4.47;;;2.63;;
7233;SDS011;3658;47.992;10.158;2022-12-13T15:29:48;2.53;;;1.90;;
7233;SDS011;3658;47.992;10.158;2022-12-13T15:32:18;3.83;;;2.20;;
7233;SDS011;3658;47.992;10.158;2022-12-13T15:34:47;3.30;;;2.60;;
7233;SDS011;3658;47.992;10.158;2022-12-13T15:37:17;3.67;;;2.40;;
7233;SDS011;3658;47.992;10.158;2022-12-13T15:39:50;3.83;;;2.70;;
7233;SDS011;3658;47.992;10.158;2022-12-13T15:42:20;5.00;;;2.47;;
7233;SDS011;3658;47.992;10.158;2022-12-13T15:44:49;2.53;;;2.30;;
7233;SDS011;3658;47.992;10.158;2022-12-13T15:47:19;3.67;;;2.27;;
7233;SDS011;3658;47.992;10.158;2022-12-13T15:49:51;3.37;;;2.43;;
7233;SDS011;3658;47.992;10.158;2022-12-13T15:52:31;2.60;;;2.40;;
7233;SDS011;3658;47.992;10.158;2022-12-13T15:55:16;4.23;;;2.57;;
7233;SDS011;3658;47.992;10.158;2022-12-13T15:57:51;2.83;;;2.40;;
7233;SDS011;3658;47.992;10.158;2022-12-13T16:00:20;4.00;;;2.60;;
7233;SDS011;3658;47.992;10.158;2022-12-13T16:02:50;7.53;;;2.63;;
7233;SDS011;3658;47.992;10.158;2022-12-13T16:05:24;5.27;;;2.87;;